Latest Weather Observations for Toowoomba

IDQ60801

Issued at 6:32 am EST Sunday 1 May 2016 (issued every 30 minutes, with the page automatically refreshed every 10 minutes)

About weather observations | Map of weather stations | Latest weather observations for QLD | Other Formats
Station Details ID: 041529 Name: TOOWOOMBA AIRPORT Lat: -27.54 Lon: 151.91 Height: 640.9 m
Data from the previous 72 hours. | See also: Recent months at Toowoomba
Date/Time
EST
Temp
°C
App
Temp
°C
Dew
Point
Rel
Hum
%
Delta-T
°C
Wind Press
QNH
hPa
Press
MSL
hPa
Rain
since 9 am
mm
Dir
 
Spd
km/h
Gust
km/h
Spd
kts
Gust
kts
01/06:30am 18.2 18.5 18.0 99 0.1 ENE 13 19 7 10 1021.9 1019.5 0.0
01/06:00am 18.3 18.3 18.1 99 0.1 ENE 15 20 8 11 1021.7 1019.4 0.0
01/05:30am 18.4 18.0 18.1 98 0.2 ENE 17 22 9 12 1021.5 1019.2 0.0
01/05:23am 18.3 17.4 17.8 97 0.3 ENE 19 24 10 13 1021.5 1019.2 0.0
01/05:00am 18.3 17.4 17.8 97 0.3 ENE 19 22 10 12 1021.2 1018.8 0.0
01/04:30am 18.4 17.2 17.6 95 0.5 ENE 20 24 11 13 1021.0 1018.6 0.0
01/04:00am 18.3 16.8 17.7 96 0.4 ENE 22 28 12 15 1020.7 1018.3 0.0
01/03:30am 18.3 17.2 17.8 97 0.3 ENE 20 28 11 15 1020.8 1018.4 0.0
01/03:00am 18.3 17.8 17.7 96 0.4 E 17 20 9 11 1021.0 1018.6 0.0
01/02:30am 18.2 17.2 17.6 96 0.4 ENE 19 24 10 13 1021.1 1018.7 0.0
01/02:00am 18.2 16.7 17.7 97 0.3 E 22 28 12 15 1021.3 1019.0 0.0
01/01:30am 18.3 17.2 17.8 97 0.3 E 20 28 11 15 1021.6 1019.3 0.0
01/01:00am 18.2 16.4 17.9 98 0.2 E 24 30 13 16 1021.7 1019.4 0.0
01/12:30am 18.3 16.5 17.8 97 0.3 E 24 30 13 16 1022.1 1019.7 0.0
01/12:00am 18.3 16.1 17.8 97 0.3 E 26 32 14 17 1022.4 1020.0 0.0
 
Date/Time
EST
Temp
°C
App
Temp
°C
Dew
Point
Rel
Hum
%
Delta-T
°C
Wind Press
QNH
hPa
Press
MSL
hPa
Rain
since 9 am
mm
Dir
 
Spd
km/h
Gust
km/h
Spd
kts
Gust
kts
30/11:30pm 18.5 16.7 17.9 96 0.4 E 24 32 13 17 1022.6 1020.2 0.0
30/11:20pm 18.4 16.6 17.8 96 0.4 E 24 32 13 17 1022.7 1020.4 0.0
30/11:00pm 18.3 16.4 17.7 96 0.4 E 24 30 13 16 1022.8 1020.5 0.0
30/10:30pm 18.3 16.3 17.3 94 0.6 E 24 33 13 18 1022.9 1020.6 0.0
30/10:00pm 18.4 16.3 17.1 92 0.8 E 24 30 13 16 1023.0 1020.7 0.0
30/09:30pm 18.3 16.1 16.8 91 0.9 E 24 28 13 15 1023.0 1020.7 0.0
30/09:00pm 18.8 17.0 16.9 89 1.2 E 22 30 12 16 1023.1 1020.8 0.0
30/08:30pm 19.2 17.4 17.0 87 1.4 E 22 26 12 14 1022.9 1020.6 0.0
30/08:00pm 19.5 16.9 16.9 85 1.6 E 26 32 14 17 1022.8 1020.5 0.0
30/07:30pm 19.8 17.7 16.3 80 2.2 E 22 30 12 16 1022.8 1020.5 0.0
30/07:00pm 20.5 18.7 15.5 73 3.0 E 19 22 10 12 1022.4 1020.0 0.0
30/06:30pm 21.1 19.7 15.6 71 3.4 E 17 20 9 11 1022.2 1019.8 0.0
30/06:00pm 21.0 19.9 15.3 70 3.5 E 15 19 8 10 1022.1 1019.7 0.0
30/05:30pm 21.8 20.3 15.4 67 3.9 E 17 19 9 10 1022.0 1019.6 0.0
30/05:00pm 22.8 21.2 14.9 61 4.8 E 17 24 9 13 1021.6 1019.3 0.0
30/04:30pm 23.5 21.4 14.8 58 5.3 E 19 24 10 13 1021.3 1019.0 0.0
30/04:00pm 24.1 22.8 14.8 56 5.7 ENE 15 26 8 14 1021.2 1018.8 0.0
30/03:30pm 24.8 23.5 14.9 54 6.1 ENE 15 22 8 12 1021.3 1019.0 0.0
30/03:00pm 25.0 22.8 15.0 53 6.1 E 20 28 11 15 1021.2 1018.8 0.0
30/02:30pm 24.3 22.1 15.0 56 5.7 ENE 20 28 11 15 1021.4 1019.1 0.0
30/02:00pm 25.6 24.0 15.0 52 6.5 ENE 17 28 9 15 1021.6 1019.3 0.0
30/01:30pm 25.0 23.5 15.3 55 6.0 ENE 17 26 9 14 1021.9 1019.5 0.0
30/01:00pm 23.5 21.5 15.0 59 5.2 E 19 26 10 14 1022.1 1019.7 0.0
30/12:30pm 23.8 22.0 15.6 60 5.1 ENE 19 26 10 14 1022.6 1020.2 0.0
30/12:00pm 24.6 23.2 16.6 61 5.0 ENE 19 30 10 16 1023.3 1021.0 0.0
30/11:30am 23.1 21.6 16.2 65 4.3 ENE 19 24 10 13 1023.9 1021.5 0.0
30/11:00am 21.8 20.0 16.1 70 3.5 ENE 20 28 11 15 1024.2 1021.9 0.0
30/10:52am 22.0 19.9 16.3 70 3.5 ENE 22 32 12 17 1024.3 1022.0 0.0
30/10:39am 21.6 20.0 16.6 73 3.1 ENE 20 26 11 14 1024.5 1022.2 0.0
30/10:30am 22.2 20.7 16.7 71 3.4 ENE 20 28 11 15 1024.6 1022.3 0.0
30/10:10am 21.2 19.6 16.4 74 3.0 ENE 20 30 11 16 1024.8 1022.5 0.0
30/10:00am 20.7 18.9 16.1 75 2.8 ENE 20 28 11 15 1025.0 1022.7 0.0
30/09:30am 19.3 16.7 16.9 86 1.5 ENE 26 32 14 17 1025.0 1022.7 0.0
30/09:28am 19.1 16.9 16.9 87 1.4 ENE 24 30 13 16 1025.0 1022.7 0.0
30/09:23am 18.9 16.5 16.5 86 1.5 ENE 24 32 13 17 1025.0 1022.7 0.0
30/09:00am 19.1 17.0 17.2 89 1.2 ENE 24 32 13 17 1025.0 1022.7 0.0
30/08:30am 18.2 16.6 17.4 95 0.5 ENE 22 28 12 15 1025.0 1022.7 0.0
30/08:00am 17.9 16.8 17.7 99 0.1 ENE 20 24 11 13 1024.8 1022.5 0.0
30/07:41am 17.5 16.2 17.3 99 0.1 ENE 20 28 11 15 1024.6 1022.3 0.0
30/07:30am 17.4 16.6 17.2 99 0.1 ENE 17 24 9 13 1024.6 1022.3 0.0
30/07:18am 17.2 16.0 17.0 99 0.1 ENE 19 24 10 13 1024.5 1022.2 0.0
30/07:00am 17.0 15.5 16.8 99 0.1 ENE 20 26 11 14 1024.2 1021.9 0.0
30/06:45am 16.9 15.6 16.7 99 0.1 ENE 19 24 10 13 1024.1 1021.8 0.0
30/06:30am 16.9 15.0 16.7 99 0.1 ENE 22 30 12 16 1024.1 1021.8 0.0
30/06:00am 16.9 15.4 16.7 99 0.1 E 20 26 11 14 1023.6 1021.2 0.0
30/05:30am 16.9 15.0 16.7 99 0.1 E 22 32 12 17 1023.4 1021.1 0.0
30/05:00am 16.8 14.9 16.6 99 0.1 E 22 26 12 14 1023.4 1021.1 0.0
30/04:30am 16.8 14.9 16.6 99 0.1 E 22 28 12 15 1023.2 1020.9 0.0
30/04:00am 16.9 15.0 16.7 99 0.1 E 22 28 12 15 1022.9 1020.6 0.0
30/03:30am 16.9 15.0 16.7 99 0.1 E 22 30 12 16 1023.0 1020.7 0.0
30/03:00am 16.9 15.0 16.7 99 0.1 E 22 30 12 16 1023.1 1020.8 0.0
30/02:30am 16.9 14.2 16.7 99 0.1 E 26 32 14 17 1023.2 1020.9 0.0
30/02:00am 16.9 14.6 16.7 99 0.1 E 24 32 13 17 1023.4 1021.1 0.0
30/01:57am 16.9 15.0 16.7 99 0.1 E 22 32 12 17 1023.4 1021.1 0.0
30/01:54am 16.9 15.0 16.7 99 0.1 E 22 28 12 15 1023.6 1021.2 0.0
30/01:30am 17.0 14.0 16.8 99 0.1 E 28 33 15 18 1023.8 1021.4 0.0
30/01:09am 17.1 14.1 16.9 99 0.1 E 28 35 15 19 1023.9 1021.5 0.0
30/01:07am 17.1 14.1 16.9 99 0.1 E 28 33 15 18 1023.9 1021.5 0.0
30/01:00am 17.0 14.0 16.8 99 0.1 E 28 37 15 20 1024.0 1021.6 0.0
30/12:30am 17.1 14.5 16.9 99 0.1 E 26 35 14 19 1024.3 1022.0 0.0
30/12:00am 17.2 14.3 17.0 99 0.1 E 28 33 15 18 1024.5 1022.2 0.0
 
Date/Time
EST
Temp
°C
App
Temp
°C
Dew
Point
Rel
Hum
%
Delta-T
°C
Wind Press
QNH
hPa
Press
MSL
hPa
Rain
since 9 am
mm
Dir
 
Spd
km/h
Gust
km/h
Spd
kts
Gust
kts
29/11:30pm 17.1 14.9 16.9 99 0.1 E 24 30 13 16 1024.8 1022.5 0.0
29/11:00pm 17.3 15.9 17.1 99 0.1 E 20 32 11 17 1025.3 1022.9 0.0
29/10:30pm 17.3 15.6 17.1 99 0.1 E 22 30 12 16 1025.5 1023.2 0.0
29/10:00pm 17.4 16.6 17.2 99 0.1 ENE 17 24 9 13 1025.7 1023.4 0.0
29/09:52pm 17.4 16.6 17.2 99 0.1 ENE 17 22 9 12 1025.6 1023.3 0.0
29/09:30pm 17.2 15.7 16.7 97 0.3 ENE 20 28 11 15 1025.4 1023.0 0.0
29/09:26pm 17.2 15.3 16.6 96 0.4 E 22 28 12 15 1025.4 1023.0 0.0
29/09:04pm 17.6 16.4 17.0 96 0.4 E 19 28 10 15 1025.4 1023.0 0.0
29/09:00pm 17.6 16.4 17.0 96 0.4 ENE 19 28 10 15 1025.4 1023.0 0.0
29/08:30pm 17.7 16.3 16.6 93 0.7 ENE 19 26 10 14 1025.4 1023.0 0.0
29/08:00pm 17.9 15.9 16.4 91 0.9 ENE 22 30 12 16 1025.1 1022.8 0.0
29/07:30pm 18.3 16.3 16.5 89 1.1 E 22 30 12 16 1024.7 1022.4 0.0
29/07:20pm 18.2 15.7 16.2 88 1.2 E 24 32 13 17 1024.7 1022.4 0.0
29/07:00pm 18.5 16.7 15.9 85 1.6 E 20 24 11 13 1024.6 1022.3 0.0
29/06:30pm 18.6 16.3 15.8 84 1.7 E 22 30 12 16 1024.4 1022.1 0.0
29/06:00pm 18.4 16.1 15.6 84 1.7 E 22 30 12 16 1024.0 1021.6 0.0
29/05:30pm 18.8 16.1 15.7 82 1.9 E 24 32 13 17 1023.8 1021.4 0.0
29/05:00pm 19.6 16.5 15.5 77 2.5 E 26 32 14 17 1023.7 1021.3 0.0
29/04:30pm 19.8 17.2 15.0 74 2.9 ENE 22 28 12 15 1023.4 1021.1 0.0
29/04:00pm 20.0 17.8 14.8 72 3.1 E 20 26 11 14 1023.6 1021.2 0.0
29/03:30pm 20.8 18.8 15.6 72 3.2 ENE 20 28 11 15 1023.2 1020.9 0.0
29/03:29pm 20.9 19.0 15.7 72 3.2 ENE 20 28 11 15 1023.2 1020.9 0.0
29/03:00pm 20.5 17.4 15.5 73 3.0 E 26 30 14 16 1023.2 1020.9 0.0
29/02:30pm 20.5 18.7 16.1 76 2.7 E 20 30 11 16 1023.7 1021.3 0.0
29/02:00pm 21.2 18.5 15.5 70 3.5 E 24 32 13 17 1023.7 1021.3 0.0
29/01:44pm 20.9 19.3 16.1 74 3.0 ENE 19 24 10 13 1023.8 1021.4 0.0
29/01:30pm 19.9 17.5 15.3 75 2.8 E 22 35 12 19 1024.0 1021.6 0.0
29/01:00pm 21.5 18.5 15.8 70 3.5 ENE 26 33 14 18 1023.9 1021.5 0.0
29/12:30pm 20.9 17.8 15.7 72 3.2 E 26 35 14 19 1024.2 1021.9 0.0
29/12:25pm 20.8 17.3 15.6 72 3.2 ENE 28 37 15 20 1024.3 1022.0 0.0
29/12:00pm 20.4 15.9 15.0 71 3.3 E 32 41 17 22 1024.6 1022.3 0.0
29/11:30am 20.8 16.5 15.4 71 3.3 E 32 39 17 21 1025.1 1022.8 0.0
29/11:26am 21.3 17.0 15.4 69 3.6 E 32 41 17 22 1025.3 1022.9 0.0
29/11:11am 21.1 17.1 15.2 69 3.6 E 30 43 16 23 1025.5 1023.2 0.0
29/11:05am 20.5 16.2 15.3 72 3.2 E 32 39 17 21 1025.6 1023.3 0.0
29/11:00am 20.9 16.6 15.4 71 3.3 E 32 41 17 22 1025.7 1023.4 0.0
29/10:30am 20.3 16.0 15.3 73 3.0 E 32 43 17 23 1026.2 1023.9 0.0
29/10:28am 20.7 16.5 15.7 73 3.1 E 32 43 17 23 1026.2 1023.9 0.0
29/10:25am 20.7 16.6 15.9 74 3.0 E 32 43 17 23 1026.3 1024.0 0.0
29/10:11am 19.7 15.2 15.4 76 2.6 E 33 44 18 24 1026.5 1024.2 0.0
29/10:00am 19.5 15.3 15.6 78 2.4 E 32 43 17 23 1026.5 1024.2 0.0
29/09:30am 18.8 14.5 15.3 80 2.1 E 32 41 17 22 1026.9 1024.6 0.0
29/09:08am 19.0 15.0 15.1 78 2.4 E 30 39 16 21 1026.9 1024.6 0.0
29/09:00am 18.8 14.8 15.1 79 2.2 ESE 30 41 16 22 1027.0 1024.7 0.0
29/08:37am 17.8 14.2 15.2 85 1.6 E 28 39 15 21 1026.9 1024.6 0.0
29/08:34am 17.7 14.2 15.5 87 1.3 E 28 37 15 20 1026.9 1024.6 0.0
29/08:30am 17.8 13.9 15.4 86 1.4 E 30 39 16 21 1026.7 1024.4 0.0
29/08:17am 17.2 13.7 15.4 89 1.1 E 28 37 15 20 1026.7 1024.4 0.0
29/08:00am 16.7 13.1 15.2 91 0.9 E 28 39 15 21 1026.5 1024.2 0.0
29/07:30am 16.2 11.8 15.2 94 0.6 E 32 41 17 22 1026.1 1023.8 0.0
29/07:00am 15.9 11.5 15.1 95 0.5 E 32 39 17 21 1025.8 1023.5 0.0
29/06:30am 15.7 11.3 15.1 96 0.4 E 32 35 17 19 1025.7 1023.4 0.0
29/06:14am 15.6 11.5 15.0 96 0.4 E 30 35 16 19 1025.5 1023.2 0.0
29/06:00am 15.7 12.0 15.1 96 0.4 ESE 28 33 15 18 1025.5 1023.2 0.0
29/05:30am 15.6 12.3 15.0 96 0.4 ESE 26 32 14 17 1025.4 1023.0 0.0
29/05:00am 15.6 12.3 15.1 97 0.3 ESE 26 32 14 17 1025.1 1022.8 0.0
29/04:30am 15.6 11.6 15.3 98 0.2 E 30 39 16 21 1024.7 1022.4 0.0
29/04:00am 15.6 11.9 15.1 97 0.3 E 28 33 15 18 1024.4 1022.1 0.0
29/03:31am 15.7 12.1 15.2 97 0.3 E 28 35 15 19 1024.6 1022.3 0.0
29/03:30am 15.7 12.1 15.2 97 0.3 E 28 35 15 19 1024.6 1022.3 0.0
29/03:00am 16.1 13.0 15.6 97 0.3 E 26 33 14 18 1024.7 1022.4 0.0
29/02:30am 16.2 13.4 15.4 95 0.5 E 24 32 13 17 1024.8 1022.5 0.0
29/02:00am 16.4 12.9 15.6 95 0.5 E 28 37 15 20 1024.9 1022.6 0.0
29/01:30am 16.4 12.9 15.4 94 0.6 E 28 33 15 18 1025.7 1023.4 0.0
29/01:00am 16.5 13.0 15.5 94 0.6 E 28 35 15 19 1025.8 1023.5 0.0
29/12:30am 16.5 12.6 15.5 94 0.6 E 30 37 16 20 1025.6 1023.3 0.0
29/12:00am 16.6 13.1 15.5 93 0.7 E 28 35 15 19 1025.7 1023.4 0.0
 
Date/Time
EST
Temp
°C
App
Temp
°C
Dew
Point
Rel
Hum
%
Delta-T
°C
Wind Press
QNH
hPa
Press
MSL
hPa
Rain
since 9 am
mm
Dir
 
Spd
km/h
Gust
km/h
Spd
kts
Gust
kts
28/11:30pm 16.7 13.2 15.6 93 0.7 E 28 37 15 20 1025.9 1023.6 0.0
28/11:00pm 16.7 12.8 15.6 93 0.7 E 30 39 16 21 1026.1 1023.8 0.0
28/10:44pm 16.7 12.8 15.4 92 0.8 E 30 39 16 21 1026.1 1023.8 0.0
28/10:30pm 16.8 12.8 15.3 91 0.9 E 30 35 16 19 1026.3 1024.0 0.0
28/10:00pm 16.8 12.5 15.3 91 0.9 E 32 41 17 22 1026.3 1024.0 0.0
28/09:30pm 17.0 12.7 15.3 90 1.0 E 32 39 17 21 1026.2 1023.9 0.0
28/09:00pm 17.3 13.0 15.5 89 1.1 E 32 43 17 23 1026.2 1023.9 0.0
28/08:30pm 17.2 13.3 15.4 89 1.1 E 30 39 16 21 1026.2 1023.9 0.0
28/08:00pm 17.5 13.0 15.0 85 1.5 E 32 37 17 20 1025.9 1023.6 0.0
28/07:30pm 17.9 13.8 14.8 82 1.9 E 30 37 16 20 1025.7 1023.4 0.0
28/07:00pm 18.5 14.0 15.0 80 2.1 E 32 39 17 21 1025.5 1023.2 0.0
28/06:30pm 18.8 15.1 14.9 78 2.3 E 28 35 15 19 1025.1 1022.8 0.0
28/06:00pm 19.4 15.1 14.4 73 3.0 E 30 39 16 21 1024.8 1022.5 0.0
28/05:30pm 20.0 16.2 13.7 67 3.7 E 26 35 14 19 1024.7 1022.4 0.0
28/05:00pm 20.8 17.0 13.5 63 4.3 E 26 32 14 17 1024.5 1022.2 0.0
28/04:30pm 22.3 18.0 13.1 56 5.4 E 28 33 15 18 1024.3 1022.0 0.0
28/04:00pm 22.2 19.0 13.0 56 5.4 E 22 30 12 16 1024.3 1022.0 0.0
28/03:30pm 23.4 19.3 12.7 51 6.3 E 26 32 14 17 1024.1 1021.8 0.0
28/03:00pm 23.2 19.2 13.1 53 6.0 E 26 35 14 19 1024.2 1021.9 0.0
28/02:30pm 23.6 19.9 12.6 50 6.5 E 24 33 13 18 1024.1 1021.8 0.0
28/02:00pm 23.5 19.0 12.5 50 6.4 E 28 39 15 21 1024.1 1021.8 0.0
28/01:30pm 23.2 18.3 12.5 51 6.3 E 30 39 16 21 1024.1 1021.8 0.0
28/01:00pm 23.5 18.8 13.1 52 6.2 E 30 39 16 21 1024.4 1022.1 0.0
28/12:30pm 22.4 17.3 13.2 56 5.4 E 32 41 17 22 1024.7 1022.4 0.0
28/12:00pm 22.2 18.1 14.8 63 4.5 E 30 43 16 23 1025.3 1022.9 0.0
28/11:30am 22.4 17.5 15.3 64 4.4 E 35 44 19 24 1025.5 1023.2 0.0
28/11:00am 20.8 15.2 14.5 67 3.8 E 37 50 20 27 1025.6 1023.3 0.0
28/10:30am 19.8 14.5 15.2 75 2.8 E 37 46 20 25 1026.0 1023.7 0.0
28/10:20am 19.5 14.2 15.2 76 2.6 E 37 46 20 25 1026.1 1023.8 0.0
28/10:00am 18.7 14.0 15.9 84 1.7 E 35 46 19 25 1026.3 1024.0 0.0
28/09:30am 17.7 13.6 16.0 90 1.0 E 32 43 17 23 1026.4 1024.1 0.0
28/09:00am 17.3 13.1 15.6 90 1.0 E 32 43 17 23 1026.2 1023.9 1.4
28/08:30am 16.5 12.2 15.5 94 0.6 E 32 43 17 23 1026.0 1023.7 1.4
28/08:00am 16.1 11.6 15.5 96 0.4 E 33 46 18 25 1025.6 1023.3 1.4
28/07:30am 16.1 12.2 15.6 97 0.3 E 30 39 16 21 1025.5 1023.2 1.4
28/07:00am 15.8 11.5 15.3 97 0.3 E 32 46 17 25 1025.3 1022.9 1.4

Other Formats:

Comma delimited format used in spreadsheet applications
http://www.bom.gov.au/fwo/IDQ60801/IDQ60801.95551.axf

JavaScript Object Notation format (JSON) in row-major order
http://www.bom.gov.au/fwo/IDQ60801/IDQ60801.95551.json